Time;durP1;ratioP1;P1;durP2;ratioP2;P2;SDS_P1;SDS_P2;PMS_P1;PMS_P2;Temp;Humidity;BMP_temperature;BMP_pressure;BME280_temperature;BME280_humidity;BME280_pressure;Samples;Min_cycle;Max_cycle;Signal;HPM_P1;HPM_P2
2021/07/30 00:00:56;;;;;;;9.18;5.60;;;;;;;16.21;86.05;99004.25;5114710;28;20544;-74
2021/07/30 00:03:22;;;;;;;9.23;5.57;;;;;;;16.34;85.50;99001.28;5114690;28;20194;-75
2021/07/30 00:05:50;;;;;;;6.32;5.60;;;;;;;16.34;85.61;99002.13;5114140;28;20195;-75
2021/07/30 00:08:17;;;;;;;7.00;5.35;;;;;;;16.32;85.24;98995.13;5114771;28;20544;-74
2021/07/30 00:10:45;;;;;;;6.90;5.38;;;;;;;16.20;86.01;99002.53;5113790;28;20278;-74
2021/07/30 00:13:12;;;;;;;7.18;5.72;;;;;;;16.17;86.38;99002.81;5114955;28;20190;-75
2021/07/30 00:15:38;;;;;;;6.40;5.80;;;;;;;16.14;86.87;98995.78;5114364;28;20225;-75
2021/07/30 00:18:05;;;;;;;9.35;5.80;;;;;;;16.20;86.42;98994.38;5114439;28;20195;-75
2021/07/30 00:20:32;;;;;;;7.25;5.93;;;;;;;16.07;86.92;98991.91;5114460;28;20203;-75
2021/07/30 00:22:59;;;;;;;5.30;4.80;;;;;;;16.10;86.62;98996.22;5114530;28;20186;-75
2021/07/30 00:25:25;;;;;;;7.05;5.78;;;;;;;16.02;87.00;98994.19;5113917;28;20190;-75
2021/07/30 00:27:53;;;;;;;12.60;5.85;;;;;;;15.91;88.13;98989.72;5114084;28;20209;-75
2021/07/30 00:30:20;;;;;;;6.45;5.50;;;;;;;15.89;88.52;98989.00;5113054;28;20197;-75
2021/07/30 00:32:47;;;;;;;6.25;5.15;;;;;;;15.88;88.56;98991.88;5114042;28;20544;-75
2021/07/30 00:35:13;;;;;;;7.80;5.85;;;;;;;15.96;87.97;98987.44;5113687;28;20251;-75
2021/07/30 00:37:41;;;;;;;6.93;5.25;;;;;;;15.86;88.07;98980.28;5113991;28;20191;-75
2021/07/30 00:40:09;;;;;;;9.20;5.57;;;;;;;15.86;87.90;98975.72;5113926;28;20194;-75
2021/07/30 00:42:36;;;;;;;6.70;5.70;;;;;;;15.87;88.04;98982.84;5113810;28;20206;-75
2021/07/30 00:45:04;;;;;;;7.22;5.38;;;;;;;15.87;87.86;98988.28;5113789;28;20657;-74
2021/07/30 00:47:32;;;;;;;13.07;5.50;;;;;;;15.69;89.18;98985.31;5113529;28;20187;-75
2021/07/30 00:50:00;;;;;;;7.15;4.80;;;;;;;15.71;89.23;98979.81;5113667;28;20202;-75
2021/07/30 00:52:27;;;;;;;6.25;4.63;;;;;;;15.80;88.60;98987.97;5112851;28;20183;-75
2021/07/30 00:54:54;;;;;;;6.47;5.10;;;;;;;15.75;88.77;98981.25;5112963;28;20296;-74
2021/07/30 00:57:22;;;;;;;6.13;5.40;;;;;;;15.69;89.08;98987.19;5113649;28;20224;-75
2021/07/30 00:59:49;;;;;;;6.57;5.00;;;;;;;15.61;89.40;98977.88;5113775;28;20952;-75
2021/07/30 01:02:18;;;;;;;6.35;5.35;;;;;;;15.68;89.53;98975.47;5113778;28;20194;-75
2021/07/30 01:04:44;;;;;;;8.02;5.30;;;;;;;15.65;89.54;98978.47;5113070;28;20230;-75
2021/07/30 01:07:11;;;;;;;5.82;5.30;;;;;;;15.59;89.94;98974.44;5113493;28;20182;-75
2021/07/30 01:09:38;;;;;;;6.75;5.15;;;;;;;15.57;89.96;98984.56;5113470;28;20196;-74
2021/07/30 01:12:07;;;;;;;7.03;5.10;;;;;;;15.52;90.66;98984.13;5112954;28;20352;-75
2021/07/30 01:14:33;;;;;;;9.38;5.95;;;;;;;15.48;90.82;98985.38;5113158;28;20311;-74
2021/07/30 01:17:00;;;;;;;7.18;5.88;;;;;;;15.51;90.47;98973.41;5113146;28;20203;-75
2021/07/30 01:19:29;;;;;;;6.40;5.72;;;;;;;15.45;90.81;98969.38;5112937;28;20183;-73
2021/07/30 01:21:56;;;;;;;8.00;5.32;;;;;;;15.57;90.10;98975.56;5113064;28;20610;-74
2021/07/30 01:24:26;;;;;;;6.43;5.50;;;;;;;15.65;89.33;98964.91;5112322;28;20680;-75
2021/07/30 01:26:53;;;;;;;7.20;5.35;;;;;;;15.59;88.74;98970.88;5113045;28;20179;-74
2021/07/30 01:29:21;;;;;;;6.15;5.25;;;;;;;15.53;89.17;98974.97;5112969;28;20683;-75
2021/07/30 01:31:48;;;;;;;6.78;4.93;;;;;;;15.52;89.32;98967.84;5112889;28;20199;-74
2021/07/30 01:34:14;;;;;;;5.75;5.15;;;;;;;15.51;88.95;98973.41;5112435;28;20301;-74
2021/07/30 01:36:41;;;;;;;8.63;5.30;;;;;;;15.41;89.50;98976.06;5112815;28;20538;-74
2021/07/30 01:39:08;;;;;;;6.00;5.35;;;;;;;15.45;89.00;98980.25;5112775;28;20557;-74
2021/07/30 01:41:35;;;;;;;5.50;4.70;;;;;;;15.44;89.61;98978.50;5112867;28;20213;-75
2021/07/30 01:44:02;;;;;;;13.20;5.47;;;;;;;15.43;89.59;98976.78;5112395;28;20187;-75
2021/07/30 01:46:29;;;;;;;5.90;5.15;;;;;;;15.38;89.65;98974.50;5112834;28;20202;-75
2021/07/30 01:48:55;;;;;;;7.05;5.18;;;;;;;15.43;89.94;98974.94;5112363;28;20205;-75
2021/07/30 01:51:22;;;;;;;7.05;5.22;;;;;;;15.58;88.92;98974.56;5112660;28;20206;-74
2021/07/30 01:53:48;;;;;;;6.70;5.22;;;;;;;15.52;88.82;98975.97;5112230;28;20199;-74
2021/07/30 01:56:15;;;;;;;10.02;5.20;;;;;;;15.49;89.01;98970.84;5112602;28;20209;-74
2021/07/30 01:58:43;;;;;;;6.50;5.82;;;;;;;15.31;90.65;98967.00;5112149;28;20189;-75
2021/07/30 02:01:10;;;;;;;7.32;4.88;;;;;;;15.31;90.46;98962.47;5112178;28;20286;-75
2021/07/30 02:03:36;;;;;;;5.97;5.30;;;;;;;15.31;90.58;98964.28;5112352;28;20186;-75
2021/07/30 02:06:07;;;;;;;6.57;5.10;;;;;;;15.27;90.59;98965.59;5112535;28;20609;-75
2021/07/30 02:08:34;;;;;;;5.55;4.85;;;;;;;15.28;90.32;98967.28;5112528;28;20605;-75
2021/07/30 02:11:00;;;;;;;5.72;5.22;;;;;;;15.24;90.62;98958.59;5111607;28;20226;-75
2021/07/30 02:16:12;;;;;;;7.97;4.93;;;;;;;15.22;90.98;98969.56;5112068;28;20220;-74
2021/07/30 02:18:39;;;;;;;6.25;5.07;;;;;;;15.11;91.24;98966.91;5112396;28;20619;-75
2021/07/30 02:21:06;;;;;;;7.45;5.10;;;;;;;14.99;92.11;98959.84;5112366;28;20667;-75
2021/07/30 02:23:32;;;;;;;5.50;4.95;;;;;;;14.94;92.46;98956.66;5112108;28;20192;-74
2021/07/30 02:25:59;;;;;;;6.95;5.20;;;;;;;14.97;92.25;98953.72;5111879;28;20203;-74
2021/07/30 02:28:25;;;;;;;10.85;6.30;;;;;;;15.02;92.29;98956.88;5111857;28;20187;-74
2021/07/30 02:30:52;;;;;;;7.43;5.00;;;;;;;15.13;91.92;98953.25;5111871;28;20291;-75
2021/07/30 02:33:20;;;;;;;7.00;5.18;;;;;;;15.03;91.46;98953.16;5111813;28;20189;-75
2021/07/30 02:35:47;;;;;;;6.00;5.10;;;;;;;15.10;91.46;98951.63;5112053;28;20221;-74
2021/07/30 02:38:13;;;;;;;7.18;5.40;;;;;;;15.04;91.37;98954.91;5112280;28;20188;-75
2021/07/30 02:40:40;;;;;;;5.93;5.32;;;;;;;15.00;91.86;98957.00;5112200;28;20285;-75
2021/07/30 02:43:07;;;;;;;6.43;5.07;;;;;;;14.92;91.95;98950.50;5111656;28;20202;-74
2021/07/30 02:45:33;;;;;;;6.00;5.20;;;;;;;14.90;91.80;98939.81;5111947;28;20229;-73
2021/07/30 02:48:00;;;;;;;8.32;5.40;;;;;;;14.83;92.67;98945.91;5111711;28;20201;-74
2021/07/30 02:50:28;;;;;;;9.40;6.22;;;;;;;14.75;93.17;98942.00;5111978;28;20743;-75
2021/07/30 02:52:54;;;;;;;6.93;5.32;;;;;;;14.75;93.06;98939.28;5111746;28;20196;-75
2021/07/30 02:55:21;;;;;;;9.60;5.60;;;;;;;14.80;93.17;98944.31;5111915;28;20248;-74
2021/07/30 02:57:48;;;;;;;6.50;4.70;;;;;;;14.78;92.71;98938.16;5112010;28;20543;-74
2021/07/30 03:00:15;;;;;;;6.30;5.70;;;;;;;14.72;93.16;98941.38;5112021;28;20191;-75
2021/07/30 03:02:41;;;;;;;6.78;4.88;;;;;;;14.56;94.09;98941.84;5111972;28;20209;-74
2021/07/30 03:05:09;;;;;;;6.80;5.32;;;;;;;14.69;93.92;98941.66;5112145;28;20185;-75
2021/07/30 03:07:37;;;;;;;5.85;5.25;;;;;;;14.67;93.02;98941.78;5111955;28;20190;-75
2021/07/30 03:10:06;;;;;;;5.95;4.95;;;;;;;14.65;93.66;98938.34;5111369;28;20292;-75
2021/07/30 03:12:33;;;;;;;7.15;5.13;;;;;;;14.59;93.66;98936.19;5111331;28;20230;-74
2021/07/30 03:15:00;;;;;;;5.60;4.78;;;;;;;14.65;93.40;98932.06;5112518;28;20695;-74
2021/07/30 03:17:26;;;;;;;6.25;5.47;;;;;;;14.70;92.96;98929.84;5115534;28;20268;-74
2021/07/30 03:19:53;;;;;;;6.82;5.97;;;;;;;14.60;93.16;98930.59;5115484;28;20242;-74
2021/07/30 03:22:19;;;;;;;7.20;5.75;;;;;;;14.44;94.25;98929.31;5115049;28;20191;-74
2021/07/30 03:24:47;;;;;;;8.35;5.70;;;;;;;14.51;94.55;98930.50;5115098;28;20187;-75
2021/07/30 03:27:14;;;;;;;5.85;5.30;;;;;;;14.34;95.12;98927.38;5115457;28;20213;-75
2021/07/30 03:29:40;;;;;;;6.70;5.28;;;;;;;14.35;95.46;98920.13;5115040;28;20212;-75
2021/07/30 03:32:08;;;;;;;7.28;5.80;;;;;;;14.42;95.67;98924.03;5115258;28;20189;-74
2021/07/30 03:34:35;;;;;;;6.15;5.45;;;;;;;14.49;94.55;98924.34;5115049;28;20250;-74
2021/07/30 03:37:02;;;;;;;6.95;5.75;;;;;;;14.38;94.86;98914.44;5115269;28;20188;-74
2021/07/30 03:39:29;;;;;;;8.40;5.35;;;;;;;14.45;94.68;98920.19;5115034;28;20207;-74
2021/07/30 03:41:57;;;;;;;7.57;6.15;;;;;;;14.45;94.49;98923.78;5114625;28;20188;-74
2021/07/30 03:44:23;;;;;;;7.50;5.57;;;;;;;14.43;94.58;98911.38;5114699;28;20184;-75
2021/07/30 03:46:50;;;;;;;5.82;5.15;;;;;;;14.46;94.06;98919.22;5114975;28;20203;-74
2021/07/30 03:49:16;;;;;;;6.13;5.30;;;;;;;14.56;93.81;98912.03;5114815;28;20188;-74
2021/07/30 03:51:43;;;;;;;7.80;5.50;;;;;;;14.68;92.88;98912.88;5114934;28;20188;-74
2021/07/30 03:54:10;;;;;;;6.32;4.63;;;;;;;14.82;92.00;98907.09;5113771;28;20212;-73
2021/07/30 03:56:38;;;;;;;6.65;5.05;;;;;;;14.73;92.01;98903.34;5114354;28;20217;-74
2021/07/30 03:59:06;;;;;;;5.90;4.93;;;;;;;14.78;91.58;98911.91;5115024;28;20197;-75
2021/07/30 04:01:33;;;;;;;5.57;4.93;;;;;;;14.83;91.13;98914.22;5114898;28;20305;-75
2021/07/30 04:03:59;;;;;;;7.05;5.25;;;;;;;14.80;91.32;98909.94;5115035;28;20189;-75
2021/07/30 04:06:26;;;;;;;7.75;5.15;;;;;;;14.79;91.21;98908.22;5114071;28;20190;-74
2021/07/30 04:08:52;;;;;;;8.55;5.22;;;;;;;14.85;91.12;98909.53;5115205;28;20207;-75
2021/07/30 04:11:19;;;;;;;7.40;5.50;;;;;;;14.71;91.37;98908.03;5113638;28;20229;-73
2021/07/30 04:13:46;;;;;;;6.07;5.18;;;;;;;14.71;91.68;98913.44;5114065;28;20182;-74
2021/07/30 04:16:14;;;;;;;7.22;5.78;;;;;;;14.85;90.81;98905.97;5114354;28;20219;-74
2021/07/30 04:18:41;;;;;;;7.18;4.88;;;;;;;14.97;89.67;98908.47;5114514;28;20232;-74
2021/07/30 04:21:09;;;;;;;7.38;5.30;;;;;;;14.98;89.30;98912.03;5114331;28;20688;-74
2021/07/30 04:23:35;;;;;;;7.30;4.93;;;;;;;14.89;89.97;98908.28;5114185;28;20225;-74
2021/07/30 04:26:02;;;;;;;6.45;5.50;;;;;;;14.79;90.81;98910.94;5113684;28;20189;-74
2021/07/30 04:28:29;;;;;;;5.78;4.70;;;;;;;14.84;90.77;98913.25;5114188;28;20552;-73
2021/07/30 04:30:56;;;;;;;7.05;5.70;;;;;;;14.79;91.19;98910.94;5114010;28;20541;-74
2021/07/30 04:33:23;;;;;;;9.27;6.60;;;;;;;14.82;90.71;98917.09;5114060;28;20189;-74
2021/07/30 04:35:50;;;;;;;6.00;5.07;;;;;;;14.70;91.43;98914.44;5113469;28;20304;-74
2021/07/30 04:38:17;;;;;;;7.28;5.38;;;;;;;14.84;90.92;98906.97;5113938;28;20273;-74
2021/07/30 04:40:43;;;;;;;10.77;6.88;;;;;;;14.85;91.41;98911.38;5113512;28;20180;-74
2021/07/30 04:43:10;;;;;;;9.05;6.20;;;;;;;14.92;90.13;98915.28;5113695;28;20200;-75
2021/07/30 04:45:36;;;;;;;7.03;5.65;;;;;;;14.92;90.32;98913.41;5113740;28;20208;-74
2021/07/30 04:48:03;;;;;;;8.50;5.85;;;;;;;15.15;89.65;98915.97;5113458;28;20190;-74
2021/07/30 04:50:31;;;;;;;6.15;4.95;;;;;;;15.40;87.90;98914.69;5113554;28;20707;-74
2021/07/30 04:52:58;;;;;;;6.25;5.32;;;;;;;15.25;87.07;98913.34;5113572;28;20186;-75
2021/07/30 04:55:25;;;;;;;12.90;9.20;;;;;;;15.20;87.34;98917.31;5112674;28;20211;-75
2021/07/30 04:57:53;;;;;;;9.98;5.68;;;;;;;14.96;88.08;98914.88;5112931;28;20229;-75
2021/07/30 05:00:20;;;;;;;7.68;5.35;;;;;;;15.14;88.28;98917.84;5113457;28;20629;-75
2021/07/30 05:02:47;;;;;;;5.93;4.97;;;;;;;15.15;87.71;98914.16;5113389;28;20521;-75
2021/07/30 05:05:13;;;;;;;6.70;5.82;;;;;;;15.16;87.95;98915.00;5112573;28;20191;-75
2021/07/30 05:07:42;;;;;;;8.45;5.80;;;;;;;15.09;88.02;98913.81;5113488;28;20274;-75
2021/07/30 05:10:10;;;;;;;6.80;6.10;;;;;;;15.28;87.32;98907.63;5113258;28;20589;-75
2021/07/30 05:12:37;;;;;;;6.90;6.10;;;;;;;15.22;87.19;98904.47;5112229;28;20274;-75
2021/07/30 05:15:03;;;;;;;6.90;5.70;;;;;;;15.36;86.83;98916.81;5113102;28;20213;-74
2021/07/30 05:17:30;;;;;;;8.80;5.95;;;;;;;15.39;86.13;98905.66;5112678;28;20198;-75
2021/07/30 05:19:57;;;;;;;10.13;5.90;;;;;;;15.44;85.93;98907.97;5112827;28;20187;-75
2021/07/30 05:22:23;;;;;;;6.78;5.47;;;;;;;15.53;85.98;98904.44;5113045;28;20203;-74
2021/07/30 05:24:51;;;;;;;6.47;4.82;;;;;;;15.52;85.41;98908.16;5112547;28;20196;-74
2021/07/30 05:27:19;;;;;;;9.93;5.70;;;;;;;15.74;85.24;98904.41;5112915;28;20556;-74
2021/07/30 05:29:46;;;;;;;6.75;5.90;;;;;;;16.00;83.43;98904.72;5112478;28;20226;-74
2021/07/30 05:32:12;;;;;;;8.90;5.82;;;;;;;16.45;81.14;98908.78;5112433;28;20230;-73
2021/07/30 05:34:39;;;;;;;7.47;5.60;;;;;;;16.57;79.88;98904.03;5112584;28;20269;-74
2021/07/30 05:37:06;;;;;;;7.95;5.03;;;;;;;16.73;78.62;98896.16;5112531;28;20311;-74
2021/07/30 05:39:32;;;;;;;6.88;5.28;;;;;;;16.49;79.88;98902.06;5112172;28;20233;-74
2021/07/30 05:42:02;;;;;;;14.05;6.13;;;;;;;16.70;79.60;98896.44;5112499;28;20533;-74
2021/07/30 05:44:29;;;;;;;6.70;5.75;;;;;;;16.64;79.31;98886.16;5112229;28;20195;-74
2021/07/30 05:46:55;;;;;;;11.65;6.10;;;;;;;16.95;78.20;98895.00;5112895;28;20558;-74
2021/07/30 05:49:22;;;;;;;10.90;6.28;;;;;;;17.09;77.60;98893.66;5112389;28;20209;-73
2021/07/30 05:51:48;;;;;;;7.60;5.35;;;;;;;17.55;76.02;98888.31;5112406;28;20554;-74
2021/07/30 05:54:15;;;;;;;8.05;5.20;;;;;;;17.62;74.73;98887.59;5112057;28;20268;-74
2021/07/30 05:56:42;;;;;;;7.05;5.85;;;;;;;17.39;75.32;98897.13;5111689;28;20310;-74
2021/07/30 05:59:09;;;;;;;8.40;5.78;;;;;;;17.09;77.09;98897.28;5112207;28;20282;-73
2021/07/30 06:01:36;;;;;;;8.32;5.65;;;;;;;17.35;76.50;98883.00;5112449;28;20193;-74
2021/07/30 06:04:03;;;;;;;7.00;4.75;;;;;;;17.36;76.19;98884.69;5112325;28;20210;-73
2021/07/30 06:06:29;;;;;;;9.15;5.80;;;;;;;17.22;76.53;98888.75;5112057;28;20179;-73
2021/07/30 06:08:56;;;;;;;7.53;5.47;;;;;;;17.04;77.87;98882.38;5112317;28;20187;-73
2021/07/30 06:11:23;;;;;;;8.10;5.95;;;;;;;17.24;77.27;98877.75;5112014;28;20227;-73
2021/07/30 06:13:49;;;;;;;6.55;5.90;;;;;;;17.50;76.53;98872.44;5112191;28;20211;-74
2021/07/30 06:16:17;;;;;;;7.18;6.13;;;;;;;17.65;75.62;98872.81;5112170;28;20203;-74
2021/07/30 06:18:44;;;;;;;5.95;5.43;;;;;;;17.78;75.18;98876.03;5112169;28;20661;-74
2021/07/30 06:21:11;;;;;;;6.80;5.57;;;;;;;17.80;74.98;98867.72;5112040;28;20181;-74
2021/07/30 06:23:37;;;;;;;7.82;5.45;;;;;;;17.89;74.82;98872.28;5111676;28;20279;-74
2021/07/30 06:26:04;;;;;;;10.05;6.85;;;;;;;18.20;73.42;98875.47;5111481;28;20241;-74
2021/07/30 06:28:31;;;;;;;6.75;5.90;;;;;;;18.07;74.07;98875.88;5112139;28;20182;-74
2021/07/30 06:30:57;;;;;;;8.95;5.55;;;;;;;18.43;73.14;98880.44;5112079;28;20192;-74
2021/07/30 06:33:28;;;;;;;14.90;6.18;;;;;;;18.57;72.21;98879.06;5112142;28;20259;-74
2021/07/30 06:35:55;;;;;;;7.72;4.88;;;;;;;18.62;71.52;98885.72;5111883;28;20204;-75
2021/07/30 06:38:21;;;;;;;9.02;5.65;;;;;;;19.01;70.58;98876.31;5112108;28;20197;-74
2021/07/30 06:40:48;;;;;;;11.13;5.97;;;;;;;19.36;68.90;98873.47;5111508;28;20188;-74
2021/07/30 06:43:15;;;;;;;7.60;6.22;;;;;;;19.61;67.84;98879.03;5111134;28;20194;-74
2021/07/30 06:45:44;;;;;;;7.35;5.63;;;;;;;19.82;66.58;98880.50;5111592;28;20679;-75
2021/07/30 06:48:11;;;;;;;7.22;5.70;;;;;;;19.91;66.32;98877.63;5111742;28;20624;-73
2021/07/30 06:50:39;;;;;;;8.10;5.93;;;;;;;20.00;66.06;98883.97;5113167;28;20189;-72
2021/07/30 06:53:06;;;;;;;7.45;5.47;;;;;;;20.27;64.60;98887.44;5115750;28;20205;-75
2021/07/30 06:55:32;;;;;;;5.50;4.70;;;;;;;20.40;63.90;98885.94;5115422;28;20203;-74
2021/07/30 06:57:59;;;;;;;8.05;4.93;;;;;;;20.50;63.36;98890.38;5114804;28;20293;-74
2021/07/30 07:00:26;;;;;;;7.18;5.28;;;;;;;20.56;63.59;98886.97;5115352;28;20277;-74
2021/07/30 07:02:52;;;;;;;8.35;5.13;;;;;;;20.63;63.41;98890.75;5115685;28;20712;-73
2021/07/30 07:05:20;;;;;;;11.35;5.45;;;;;;;20.57;63.84;98883.22;5115453;28;20617;-72
2021/07/30 07:07:48;;;;;;;6.55;5.70;;;;;;;20.81;62.82;98885.13;5115172;28;20195;-73
2021/07/30 07:10:14;;;;;;;8.00;6.55;;;;;;;20.95;62.84;98878.09;5115502;28;20278;-73
2021/07/30 07:12:41;;;;;;;7.83;5.20;;;;;;;20.96;62.98;98871.56;5114674;28;20580;-72
2021/07/30 07:15:08;;;;;;;6.80;4.97;;;;;;;21.07;62.57;98881.31;5114829;28;20476;-73
2021/07/30 07:17:37;;;;;;;7.03;5.55;;;;;;;20.99;62.89;98877.56;5114419;28;20238;-73
2021/07/30 07:20:05;;;;;;;6.80;4.83;;;;;;;21.06;62.80;98877.72;5114668;28;20198;-75
2021/07/30 07:22:31;;;;;;;7.10;5.50;;;;;;;21.17;62.59;98876.50;5115044;28;20883;-73
2021/07/30 07:25:00;;;;;;;5.90;5.00;;;;;;;21.32;62.35;98872.00;5114919;28;20531;-73
2021/07/30 07:27:26;;;;;;;7.33;5.30;;;;;;;21.49;61.97;98872.84;5114464;28;20517;-74
2021/07/30 07:29:53;;;;;;;7.80;5.83;;;;;;;21.73;61.55;98873.75;5114714;28;20443;-74
2021/07/30 07:32:19;;;;;;;9.53;5.20;;;;;;;21.79;61.17;98873.91;5114526;28;20460;-74
2021/07/30 07:34:46;;;;;;;10.43;6.00;;;;;;;22.00;60.63;98877.91;5114820;28;20882;-74
2021/07/30 07:37:13;;;;;;;7.53;5.30;;;;;;;21.94;60.85;98874.00;5114741;28;20464;-74
2021/07/30 07:39:39;;;;;;;7.60;5.77;;;;;;;22.30;60.18;98869.88;5114530;28;20927;-74
2021/07/30 07:42:07;;;;;;;7.43;5.17;;;;;;;22.45;59.59;98868.03;5114311;28;20475;-74
2021/07/30 07:44:35;;;;;;;7.10;5.00;;;;;;;22.67;58.83;98867.16;5114032;28;20516;-74
2021/07/30 07:47:01;;;;;;;8.47;5.03;;;;;;;22.66;58.52;98868.22;5114401;28;20449;-75
2021/07/30 07:49:28;;;;;;;5.10;4.40;;;;;;;22.83;56.91;98857.94;5114213;28;20432;-75
2021/07/30 07:51:55;;;;;;;5.47;3.70;;;;;;;23.00;56.43;98858.69;5114272;28;20476;-75
2021/07/30 07:54:21;;;;;;;6.73;4.40;;;;;;;23.13;55.48;98846.19;5114524;28;20441;-75
2021/07/30 07:56:48;;;;;;;7.37;4.40;;;;;;;23.16;56.33;98854.06;5114033;28;20483;-74
2021/07/30 07:59:16;;;;;;;9.47;4.50;;;;;;;23.07;55.90;98854.13;5114529;28;20504;-74
2021/07/30 08:01:42;;;;;;;6.17;4.30;;;;;;;23.30;55.42;98845.81;5113452;28;20872;-75
2021/07/30 08:04:09;;;;;;;4.70;4.10;;;;;;;23.34;54.74;98845.41;5114548;28;20770;-75
2021/07/30 08:06:35;;;;;;;7.13;5.03;;;;;;;23.61;54.04;98849.41;5113615;28;20524;-74
2021/07/30 08:09:02;;;;;;;4.33;3.60;;;;;;;23.50;54.64;98846.09;5114060;28;20438;-75
2021/07/30 08:11:29;;;;;;;5.93;4.17;;;;;;;23.70;52.88;98845.50;5112765;28;20465;-75
2021/07/30 08:13:55;;;;;;;6.07;4.03;;;;;;;23.94;53.16;98845.19;5093955;28;20425;-75
2021/07/30 08:16:26;;;;;;;6.40;4.20;;;;;;;23.93;51.81;98846.25;5093314;28;20477;-74
2021/07/30 08:18:53;;;;;;;5.13;3.70;;;;;;;24.14;50.52;98837.16;5093809;28;20793;-75
2021/07/30 08:21:20;;;;;;;5.00;4.50;;;;;;;24.29;50.00;98839.03;5093023;28;20430;-75
2021/07/30 08:23:46;;;;;;;5.30;4.10;;;;;;;24.22;49.68;98840.81;5111353;28;20447;-74
2021/07/30 08:26:13;;;;;;;5.97;4.70;;;;;;;24.30;49.04;98855.31;5113166;28;20442;-73
2021/07/30 08:28:40;;;;;;;6.33;4.10;;;;;;;24.44;48.92;98853.53;5113169;28;20527;-75
2021/07/30 08:31:06;;;;;;;4.80;3.43;;;;;;;24.45;48.42;98857.16;5113522;28;20467;-74
2021/07/30 08:33:35;;;;;;;8.83;4.17;;;;;;;24.06;49.27;98852.94;5113656;28;20793;-74
2021/07/30 08:36:02;;;;;;;6.30;4.53;;;;;;;24.53;48.88;98857.06;5112832;28;20524;-75
2021/07/30 08:38:28;;;;;;;5.50;4.33;;;;;;;24.70;48.50;98858.50;5113629;28;20473;-75
2021/07/30 08:40:56;;;;;;;5.40;3.67;;;;;;;24.39;48.08;98856.03;5113329;28;20524;-75
2021/07/30 09:17:01;;;;;;;9.20;4.47;;;;;;;24.87;46.33;98825.16;3991797;28;20465;-75
2021/07/30 09:19:28;;;;;;;4.23;3.87;;;;;;;25.20;45.19;98819.91;5092756;28;21020;-76
2021/07/30 09:22:06;;;;;;;4.50;3.90;;;;;;;25.23;44.65;98818.66;5091955;28;20605;-76
2021/07/30 09:24:37;;;;;;;4.10;3.53;;;;;;;24.98;44.94;98814.44;5092426;28;20899;-76
2021/07/30 09:27:07;;;;;;;6.57;3.90;;;;;;;25.08;45.45;98816.00;5092098;28;20430;-75
2021/07/30 09:29:34;;;;;;;4.83;4.03;;;;;;;25.11;45.35;98816.44;5092026;28;20457;-75
2021/07/30 09:32:04;;;;;;;4.20;3.80;;;;;;;25.47;44.31;98815.41;5092764;28;20512;-76
2021/07/30 09:34:34;;;;;;;4.07;3.67;;;;;;;25.49;44.25;98813.31;5092675;28;20422;-76
2021/07/30 09:37:02;;;;;;;6.07;4.40;;;;;;;25.54;44.24;98805.25;5092298;28;20567;-74
2021/07/30 09:39:38;;;;;;;4.73;3.80;;;;;;;25.09;44.97;98810.28;5111893;28;20918;-74
2021/07/30 09:42:07;;;;;;;4.97;4.20;;;;;;;25.60;45.04;98809.13;5112404;28;20425;-75
2021/07/30 09:44:36;;;;;;;6.63;3.70;;;;;;;25.96;44.26;98803.34;5111532;28;20443;-75
2021/07/30 09:47:14;;;;;;;4.20;3.90;;;;;;;25.49;44.79;98802.28;5112186;28;20520;-75
2021/07/30 09:49:47;;;;;;;4.13;3.73;;;;;;;25.51;44.87;98796.56;5111686;28;20478;-75
2021/07/30 09:52:16;;;;;;;4.87;4.37;;;;;;;25.84;44.08;98804.94;5112499;28;20935;-74
2021/07/30 09:54:45;;;;;;;5.43;4.37;;;;;;;25.83;44.02;98797.75;5111392;28;20447;-73
2021/07/30 09:57:17;;;;;;;5.73;4.60;;;;;;;26.11;43.25;98789.34;5112350;28;20811;-75
2021/07/30 09:59:45;;;;;;;4.93;4.37;;;;;;;26.21;43.17;98797.25;5111872;28;20536;-76
2021/07/30 10:02:16;;;;;;;6.43;5.10;;;;;;;25.97;43.58;98795.91;5111367;28;20464;-74
2021/07/30 10:04:45;;;;;;;4.63;3.73;;;;;;;26.34;43.31;98785.34;5092049;28;20510;-74
2021/07/30 10:07:20;;;;;;;4.90;4.37;;;;;;;26.91;42.13;98789.44;5091838;28;20935;-75
2021/07/30 10:09:56;;;;;;;5.07;4.37;;;;;;;26.96;42.00;98786.88;5092324;28;20848;-75
2021/07/30 10:12:23;;;;;;;5.50;4.20;;;;;;;26.78;42.40;98787.53;5110010;28;20486;-74
2021/07/30 10:14:51;;;;;;;4.70;4.30;;;;;;;27.29;41.13;98782.34;5112212;28;20826;-75
2021/07/30 10:17:27;;;;;;;9.13;6.23;;;;;;;27.43;41.16;98781.25;5111736;28;20457;-75
2021/07/30 10:19:55;;;;;;;5.30;4.33;;;;;;;27.04;42.09;98772.84;5111630;28;20431;-75
2021/07/30 10:22:23;;;;;;;5.87;4.20;;;;;;;27.16;41.35;98764.72;5111813;28;20425;-75
2021/07/30 10:24:53;;;;;;;5.40;4.80;;;;;;;27.35;41.13;98775.97;5114300;28;20433;-75
2021/07/30 10:27:23;;;;;;;5.50;4.27;;;;;;;27.61;40.58;98775.88;5116378;28;20766;-74
2021/07/30 10:30:20;;;;;;;4.77;4.20;;;;;;;27.70;40.39;98772.84;5116346;28;20753;-75
2021/07/30 10:32:55;;;;;;;4.80;4.30;;;;;;;27.16;40.61;98764.72;5013537;28;20984;-74
2021/07/30 10:35:43;;;;;;;6.60;4.43;;;;;;;27.04;41.11;98760.91;5096935;28;20493;-74
2021/07/30 10:38:14;;;;;;;7.30;4.60;;;;;;;27.30;40.30;98759.19;5115579;28;20491;-75
2021/07/30 10:40:41;;;;;;;5.13;4.47;;;;;;;27.55;39.65;98757.38;5115541;28;20440;-75
2021/07/30 10:43:09;;;;;;;5.60;3.80;;;;;;;27.69;38.78;98763.69;5115786;28;20998;-75
2021/07/30 10:45:36;;;;;;;5.00;4.43;;;;;;;27.55;39.09;98760.16;5115912;28;20544;-75
2021/07/30 10:48:32;;;;;;;8.03;4.30;;;;;;;27.67;38.52;98758.38;5115383;28;20421;-74
2021/07/30 10:51:01;;;;;;;5.93;4.40;;;;;;;27.60;38.52;98753.97;5113557;28;20457;-75
2021/07/30 10:53:52;;;;;;;4.73;4.23;;;;;;;27.34;39.65;98752.16;5115508;28;20421;-75
2021/07/30 10:56:46;;;;;;;4.57;4.17;;;;;;;26.82;40.71;98749.28;5094979;28;20456;-75
2021/07/30 10:59:12;;;;;;;4.10;3.60;;;;;;;27.33;39.77;98736.63;5115744;28;20417;-74
2021/07/30 11:01:56;;;;;;;5.73;5.13;;;;;;;27.58;38.75;98750.56;5114921;28;20460;-74
2021/07/30 11:04:23;;;;;;;5.80;4.30;;;;;;;27.51;39.38;98742.31;5115794;28;20425;-74
2021/07/30 11:06:59;;;;;;;5.90;4.57;;;;;;;27.24;38.86;98727.75;5115070;28;20433;-76
2021/07/30 11:09:26;;;;;;;4.80;4.40;;;;;;;27.26;39.65;98722.00;5115093;28;20895;-73
2021/07/30 11:11:54;;;;;;;4.47;4.07;;;;;;;27.41;39.52;98730.88;5114952;28;20472;-74
2021/07/30 11:14:22;;;;;;;5.07;4.37;;;;;;;27.32;39.68;98726.66;5114647;28;20445;-74
2021/07/30 11:16:51;;;;;;;5.20;4.70;;;;;;;27.15;40.16;98715.19;5115125;28;20427;-74
2021/07/30 11:19:19;;;;;;;4.53;4.13;;;;;;;26.91;39.56;98723.16;5115093;28;20475;-73
2021/07/30 11:21:46;;;;;;;7.50;5.00;;;;;;;26.79;40.00;98711.88;5115448;28;20513;-74
2021/07/30 11:24:15;;;;;;;4.47;3.97;;;;;;;26.98;39.56;98717.59;5115692;28;20429;-73
2021/07/30 11:26:42;;;;;;;4.40;3.93;;;;;;;26.90;40.28;98715.91;5115097;28;20909;-74
2021/07/30 11:29:10;;;;;;;6.63;4.27;;;;;;;26.67;40.26;98710.88;5115014;28;21037;-73
2021/07/30 11:31:38;;;;;;;5.13;4.00;;;;;;;26.31;41.04;98714.88;5114680;28;20429;-75
2021/07/30 11:34:10;;;;;;;7.83;4.20;;;;;;;26.36;41.18;98704.06;5114665;28;20426;-75
2021/07/30 11:36:36;;;;;;;6.80;4.83;;;;;;;26.72;41.13;98705.53;5114052;28;20452;-76
2021/07/30 11:39:03;;;;;;;6.73;4.87;;;;;;;26.78;40.63;98707.44;5114369;28;20469;-76
2021/07/30 11:41:31;;;;;;;5.83;4.50;;;;;;;27.01;39.97;98712.47;5114793;28;20432;-75
2021/07/30 11:43:59;;;;;;;5.40;4.90;;;;;;;27.26;39.87;98713.72;5114798;28;20456;-75
2021/07/30 11:46:28;;;;;;;6.87;5.10;;;;;;;27.56;39.22;98709.31;5114902;28;20544;-74
2021/07/30 11:48:55;;;;;;;6.40;4.27;;;;;;;27.30;39.80;98707.53;5114746;28;20521;-76
2021/07/30 11:51:23;;;;;;;5.17;4.63;;;;;;;27.12;40.02;98701.84;5114152;28;20528;-75
2021/07/30 11:53:51;;;;;;;9.93;4.40;;;;;;;27.30;39.62;98718.59;5114072;28;20441;-75
2021/07/30 11:56:18;;;;;;;5.30;3.93;;;;;;;27.93;38.75;98701.25;5114668;28;20911;-75
2021/07/30 11:59:00;;;;;;;8.80;6.83;;;;;;;28.71;37.24;98694.44;5114515;28;20896;-74
2021/07/30 12:01:27;;;;;;;5.37;4.60;;;;;;;29.30;36.37;98694.88;5114340;28;20425;-75
2021/07/30 12:04:07;;;;;;;6.40;4.77;;;;;;;29.54;36.48;98698.63;5114639;28;20456;-74
2021/07/30 12:06:38;;;;;;;5.03;4.60;;;;;;;29.44;36.02;98688.09;5114709;28;21338;-75
2021/07/30 12:09:07;;;;;;;4.13;3.73;;;;;;;28.16;37.61;98694.28;5113679;28;20426;-74
2021/07/30 12:11:34;;;;;;;5.97;4.53;;;;;;;28.07;37.66;98683.50;5108241;28;20433;-75
2021/07/30 12:14:02;;;;;;;6.70;4.50;;;;;;;27.78;38.66;98696.00;5114026;28;20425;-75